Racecast

Jackson Carter

Fairview (CO) · 12 · GRANITE PEAKSCO D5A5A · Compare head to head

Athlete rating 116.9 2015 XC season
Best race 117.7 XC
Races 31
Seasons 4 2015 — 2018

RankedNation #23792·CO #613·CO D5A #381·GRANITE PEAKS #61·Team #25 ?

Speed rating — all races

Cross Country

XC speed rating

2015 XC 115.4

Fairview (CO) · Grade 10

Date Meet Event Result Place Rating Difficulty PR/SR Flags
2015-10-22 Northwest Open Space 5000m 18:14 49th · 8th on team 115.1 +0.020 ★CR CSR
2015-10-02 Margaret W. Carpenter Recreation Center 5000m 18:03 60th · 7th on team 116.5 +0.014 ★PR ★CR SR CSR
2015-09-26 Viele Lake XC Course 5000m 18:29 64th · 6th on team 116.9 +0.042 ★CR CSR
2015-09-18 Broomfield County Commons Park 5000m 18:11 51st · 7th on team 117.7 +0.053 ★CR ★R CSR RSR
2015-09-11 Heritage High School 5000m 18:10 39th · 1st on team 113.6 -0.001 PR ★CR R SR CSR RSR
2015-09-04 Colorado State University 5000m 18:53 6th · 3rd on team 112.7 +0.027 PR ★CR R SR CSR RSR

Track & Field

TF speed rating

2018 TF

Fairview (CO) · Grade 12

Date Meet Event Result Place Rating Difficulty PR/SR Flags
2018-04-27 No Name Invitational 200m 24.19 13th · 2nd on team -0.015 ★PR SR
2018-04-27 No Name Invitational 300mh 41.57 2nd · 1st on team -0.015 ★PR SR
2018-04-27 No Name Invitational 110mh 16.68 6th · 2nd on team -0.015 ★PR SR
2018-04-19 Fairview Invitational 110mh 17.15 5th · 2nd on team -0.007 PR SR
2018-04-19 Fairview Invitational 300mh 43.42 4th · 1st on team -0.007
2018-04-07 Mullen Invitational 300mh 42.85 25th · 1st on team -0.014 SR
2018-03-10 Boulder Snow Invitational 110mh 17.54 14th · 2nd on team -0.012 SR
2018-03-10 Boulder Snow Invitational 300mh 43.2 5th · 1st on team -0.012 SR

2017 TF

Fairview (CO) · Grade 11

Date Meet Event Result Place Rating Difficulty PR/SR Flags
2017-05-12 St. Vrain New Balance Invitational 300mh 42.87 22nd · 1st on team -0.007
2017-05-12 St. Vrain New Balance Invitational 110mh 17.22 28th · 2nd on team -0.007
2017-05-03 Front Range League Meet 300mh 43.36 19th · 1st on team -0.011
2017-05-03 Front Range League Meet 110mh 17.17 26th · 2nd on team -0.011 PR SR
2017-04-15 Boulder County Invitational 110mh 17.61 10th · 2nd on team -0.007 PR SR
2017-04-15 Boulder County Invitational 300mh 42.61 4th · 1st on team -0.007 PR SR
2017-04-08 Mullen Runners Roost Invitational 110mh 18.75 42nd · 2nd on team -0.014
2017-04-08 Mullen Runners Roost Invitational 300mh 46.66 35th · 1st on team -0.014
2017-04-01 Altitude Running Invitational 300mh 44.17 13th · 1st on team -0.011
2017-04-01 Altitude Running Invitational 110mh 19.16 18th · 2nd on team -0.011
2017-03-25 Broomfield Shootout 300mh 43.63 17th · 1st on team -0.012 PR SR
2017-03-25 Broomfield Shootout 110mh 17.84 29th · 2nd on team -0.012 PR SR

2016 TF

Fairview (CO) · Grade 10

Date Meet Event Result Place Rating Difficulty PR/SR Flags
2016-04-23 Liberty Bell Invite 300mh 47.34 45th · 2nd on team -0.015 PR SR
2016-04-23 Liberty Bell Invite 110mh 19.69 44th · 2nd on team -0.015 PR SR

2015 TF 108.8

Fairview (CO) · Grade 9

Date Meet Event Result Place Rating Difficulty PR/SR Flags
2015-04-28 JV Championships 800m 2:23.45 17th · 1st on team 107.9 -0.009 ★PR SR
2015-03-18 Boulder/Fairview/Monarch Tri Meet 100m 13.16 19th · 9th on team -0.007 ★PR SR
2015-03-18 Boulder/Fairview/Monarch Tri Meet 1600m 5:19.83 20th · 7th on team 109.8 -0.007 ★PR R SR RSR